Enterprise, Utah
Current Conditions -  °F | °C
As of 4:53 PM on Monday 24 Nov 2014 (Local Time) from KCDC Reporting Station
Clear Clear  
Wind Chill: 32°   Ceiling: Unl
Heat Index: 38°   Visibility: 10mi
Dew Point: 12°   Wind: 8mph
Humidity: 35%   Direction: 20°NNE
Pressure: 30.39"   Gusts: NA
Location:  37.57°N, 113.72°W
Report Text: KCDC 242353Z AUTO 02007KT 10SM CLR 03/M11 A3039 RMK AO2 SLP313 T00331111 10067 20022 53016
Loading
Personal Weather Stations






























Interactive Weather Map New forecast layout! Learn more

10-Day Weather Forecast

Advertisements
Track Severe Weather on mobile